Time;durP1;ratioP1;P1;durP2;ratioP2;P2;SDS_P1;SDS_P2;PMS_P1;PMS_P2;Temp;Humidity;BMP_temperature;BMP_pressure;BME280_temperature;BME280_humidity;BME280_pressure;Samples;Min_cycle;Max_cycle;Signal;HPM_P1;HPM_P2
2022/04/08 00:01:42;;;;;;;6.10;3.70;;;;;;;12.56;62.00;97923.06;4369110;32;34227;-70
2022/04/08 00:04:30;;;;;;;9.63;3.75;;;;;;;12.84;61.03;97932.97;4370988;32;34623;-69
2022/04/08 00:07:16;;;;;;;6.37;3.20;;;;;;;12.64;61.62;97937.72;4369346;32;35037;-69
2022/04/08 00:10:03;;;;;;;6.32;3.00;;;;;;;12.98;60.25;97940.66;4367495;32;35523;-69
2022/04/08 00:12:50;;;;;;;5.85;3.67;;;;;;;13.00;59.65;97939.09;4369614;32;34140;-69
2022/04/08 00:15:38;;;;;;;5.75;3.28;;;;;;;12.70;60.79;97944.50;4371033;32;34686;-69
2022/04/08 00:18:24;;;;;;;6.60;3.72;;;;;;;12.92;59.88;97944.84;4359399;32;36043;-69
2022/04/08 00:21:10;;;;;;;6.70;4.03;;;;;;;9.87;71.80;97959.88;4366936;32;34488;-69
2022/04/08 00:23:56;;;;;;;7.00;4.00;;;;;;;10.96;69.67;97945.19;4368780;32;34078;-69
2022/04/08 00:26:45;;;;;;;8.18;4.12;;;;;;;11.74;65.88;97931.66;4371079;32;34707;-69
2022/04/08 00:29:31;;;;;;;7.43;3.42;;;;;;;12.01;64.51;97941.66;4357838;32;36368;-69
2022/04/08 00:32:18;;;;;;;5.07;3.40;;;;;;;12.11;64.01;97910.06;4357969;32;34263;-69
2022/04/08 00:35:04;;;;;;;5.85;3.25;;;;;;;12.21;63.50;97936.13;4366025;32;34136;-69
2022/04/08 00:37:51;;;;;;;6.60;3.53;;;;;;;12.44;62.55;97942.47;4364308;32;34326;-69
2022/04/08 00:40:37;;;;;;;7.32;3.50;;;;;;;12.23;62.89;97947.56;4357083;32;35925;-69
2022/04/08 00:43:35;;;;;;;8.40;4.60;;;;;;;12.17;63.68;97952.53;4358543;32;35456;-69
2022/04/08 00:46:21;;;;;;;7.50;3.62;;;;;;;12.46;62.54;97937.41;4369024;32;34121;-69
2022/04/08 00:49:08;;;;;;;8.05;3.95;;;;;;;12.37;62.82;97934.09;4369881;32;35655;-69
2022/04/08 00:51:55;;;;;;;7.97;4.20;;;;;;;12.00;64.11;97937.31;4357842;32;35678;-69
2022/04/08 00:54:43;;;;;;;7.15;4.15;;;;;;;9.83;75.46;97959.00;4357481;32;34195;-69
2022/04/08 00:57:30;;;;;;;10.52;4.55;;;;;;;10.73;72.08;97962.25;4360232;32;34144;-69
2022/04/08 01:00:19;;;;;;;10.27;4.45;;;;;;;11.07;70.13;97961.88;4358510;32;35573;-69
2022/04/08 01:03:05;;;;;;;7.72;4.10;;;;;;;10.23;73.42;97960.88;4360008;32;34845;-69
2022/04/08 01:05:52;;;;;;;8.80;5.12;;;;;;;10.23;74.64;97947.19;4362597;32;34627;-69
2022/04/08 01:08:39;;;;;;;6.45;4.03;;;;;;;10.62;72.04;97950.22;4372244;32;34144;-69
2022/04/08 01:11:25;;;;;;;7.45;4.03;;;;;;;11.25;68.46;97957.63;4371207;32;35584;-69
2022/04/08 01:14:13;;;;;;;7.65;4.05;;;;;;;11.44;66.86;97965.09;4360940;32;36009;-69
2022/04/08 01:16:59;;;;;;;7.22;4.00;;;;;;;11.68;65.57;97967.59;4372522;32;34371;-69
2022/04/08 01:19:45;;;;;;;9.77;4.10;;;;;;;11.59;66.15;97969.75;4371796;32;35554;-69
2022/04/08 01:22:32;;;;;;;9.27;4.85;;;;;;;11.99;64.00;97965.94;4372461;32;35249;-69
2022/04/08 01:25:18;;;;;;;8.68;3.47;;;;;;;11.99;64.04;97976.91;4370890;32;35944;-68
2022/04/08 01:28:05;;;;;;;9.02;3.58;;;;;;;11.74;64.72;97973.59;4359814;32;34160;-69
2022/04/08 01:30:51;;;;;;;8.02;4.15;;;;;;;11.70;65.13;97986.47;4370416;32;34215;-69
2022/04/08 01:33:37;;;;;;;5.93;3.70;;;;;;;11.35;66.18;97991.91;4370626;32;34343;-69
2022/04/08 01:36:23;;;;;;;6.78;3.90;;;;;;;11.09;68.33;98001.47;4370129;32;35911;-69
2022/04/08 01:39:10;;;;;;;7.57;4.30;;;;;;;10.41;70.28;98010.69;4372281;32;34459;-69
2022/04/08 01:41:55;;;;;;;10.70;4.32;;;;;;;10.38;72.56;98032.50;4370199;32;33573;-69
2022/04/08 01:44:44;;;;;;;6.45;3.70;;;;;;;11.03;69.14;98025.63;4372061;32;34438;-69
2022/04/08 01:47:30;;;;;;;9.52;4.05;;;;;;;10.37;71.26;98036.38;4369556;32;36038;-69
2022/04/08 01:50:19;;;;;;;7.40;3.87;;;;;;;10.55;71.82;98052.13;4360566;32;34649;-69
2022/04/08 01:53:05;;;;;;;8.55;3.60;;;;;;;10.50;70.38;98054.34;4356107;32;34208;-69
2022/04/08 01:55:52;;;;;;;6.70;3.58;;;;;;;9.88;74.99;98057.25;4371963;32;34434;-69
2022/04/08 01:58:38;;;;;;;7.18;3.72;;;;;;;10.38;71.07;98048.91;4371732;32;34906;-69
2022/04/08 02:01:24;;;;;;;5.95;3.78;;;;;;;10.01;73.61;98051.72;4371711;32;34213;-69
2022/04/08 02:04:11;;;;;;;7.20;4.30;;;;;;;9.62;75.63;98054.06;4371425;32;34269;-69
2022/04/08 02:06:58;;;;;;;8.13;3.50;;;;;;;9.49;76.62;98063.44;4368205;32;34683;-69
2022/04/08 02:09:44;;;;;;;7.75;3.40;;;;;;;10.22;73.05;98060.59;4363587;32;36635;-69
2022/04/08 02:12:30;;;;;;;6.37;3.80;;;;;;;9.80;74.24;98085.50;4371898;32;35475;-69
2022/04/08 02:15:25;;;;;;;9.35;3.78;;;;;;;10.61;71.15;98098.44;4361201;32;35043;-69
2022/04/08 02:18:12;;;;;;;9.25;4.05;;;;;;;10.90;69.31;98091.81;4358539;32;35274;-69
2022/04/08 02:21:00;;;;;;;7.18;3.50;;;;;;;10.95;68.90;98110.75;4370005;32;34943;-69
2022/04/08 02:23:46;;;;;;;7.65;3.50;;;;;;;11.20;67.95;98095.75;4357055;32;34308;-69
2022/04/08 02:26:33;;;;;;;9.15;3.70;;;;;;;11.14;68.17;98093.63;4365137;32;33870;-69
2022/04/08 02:29:19;;;;;;;6.30;3.10;;;;;;;10.98;68.92;98090.84;4370518;32;35515;-69
2022/04/08 02:32:05;;;;;;;8.02;3.90;;;;;;;10.85;69.39;98060.00;4369302;32;35612;-69
2022/04/08 02:34:52;;;;;;;7.65;4.60;;;;;;;10.62;70.84;98053.50;4350029;32;33926;-69
2022/04/08 02:37:39;;;;;;;7.78;4.43;;;;;;;10.78;70.24;98079.75;4349000;32;34119;-69
2022/04/08 02:40:25;;;;;;;8.10;4.85;;;;;;;10.80;70.30;98088.44;4360639;32;34248;-69
2022/04/08 02:43:11;;;;;;;9.88;4.78;;;;;;;11.13;68.77;98090.09;4368575;32;35043;-69
2022/04/08 02:45:57;;;;;;;7.30;4.12;;;;;;;11.20;67.81;98090.25;4372102;32;35670;-69
2022/04/08 02:48:43;;;;;;;8.02;4.10;;;;;;;11.18;67.54;98098.03;4371969;32;33183;-69
2022/04/08 02:51:29;;;;;;;6.90;3.92;;;;;;;11.06;68.11;98109.09;4370564;32;34477;-69
2022/04/08 02:54:15;;;;;;;6.53;3.55;;;;;;;11.20;67.57;98117.69;4357705;32;34616;-69
2022/04/08 02:57:02;;;;;;;10.90;4.30;;;;;;;11.03;68.23;98116.06;4371501;32;34324;-69
2022/04/08 02:59:50;;;;;;;6.35;3.72;;;;;;;11.10;68.18;98134.66;4369044;32;34239;-68
2022/04/08 03:02:37;;;;;;;6.78;3.50;;;;;;;11.15;68.13;98148.09;4363197;32;34490;-69
2022/04/08 03:05:23;;;;;;;8.18;4.32;;;;;;;10.94;68.73;98164.75;4349218;32;35014;-69
2022/04/08 03:08:09;;;;;;;7.35;3.85;;;;;;;11.07;68.87;98167.44;4356458;32;34187;-69
2022/04/08 03:10:55;;;;;;;6.47;3.87;;;;;;;11.18;68.58;98163.84;4344271;32;33767;-69
2022/04/08 03:13:42;;;;;;;6.85;3.65;;;;;;;10.60;70.80;98162.59;4365344;32;35320;-69
2022/04/08 03:16:28;;;;;;;13.13;4.40;;;;;;;10.56;71.49;98176.19;4355091;32;35052;-69
2022/04/08 03:19:14;;;;;;;7.25;3.95;;;;;;;10.73;70.16;98164.97;4366267;32;34562;-69
2022/04/08 03:22:01;;;;;;;7.65;4.18;;;;;;;9.36;76.86;98178.25;4364115;32;34220;-69
2022/04/08 03:24:48;;;;;;;9.60;4.40;;;;;;;9.67;77.71;98168.69;4362402;32;35588;-68
2022/04/08 03:27:34;;;;;;;9.40;4.68;;;;;;;9.66;77.89;98178.06;4364152;32;35623;-69
2022/04/08 03:30:21;;;;;;;6.95;4.05;;;;;;;9.78;76.82;98189.00;4366482;32;35469;-68
2022/04/08 03:33:07;;;;;;;5.60;3.33;;;;;;;9.43;76.42;98186.69;4365308;32;34396;-68
2022/04/08 03:35:53;;;;;;;5.10;2.80;;;;;;;10.15;71.47;98205.41;4367025;32;35578;-68
2022/04/08 03:38:39;;;;;;;5.10;2.50;;;;;;;10.34;70.88;98202.13;4354583;32;35490;-68
2022/04/08 03:41:26;;;;;;;4.43;2.53;;;;;;;10.47;70.39;98211.94;4362537;32;35138;-68
2022/04/08 03:44:12;;;;;;;3.87;1.50;;;;;;;10.48;70.71;98226.41;4363857;32;34200;-68
2022/04/08 03:46:58;;;;;;;4.03;1.60;;;;;;;10.50;71.15;98229.59;4366866;32;35531;-68
2022/04/08 03:49:45;;;;;;;4.80;1.35;;;;;;;10.56;71.33;98226.28;4359303;32;34786;-69
2022/04/08 03:52:34;;;;;;;1.48;0.98;;;;;;;10.70;71.16;98247.03;4368156;32;35109;-68
2022/04/08 03:55:21;;;;;;;2.03;0.70;;;;;;;10.81;71.38;98253.63;4366002;32;34195;-69
2022/04/08 03:58:09;;;;;;;1.90;0.57;;;;;;;10.86;71.76;98255.31;4363220;32;34712;-68
2022/04/08 04:00:56;;;;;;;1.12;0.55;;;;;;;10.96;72.16;98268.56;4352510;32;34532;-68
2022/04/08 04:03:42;;;;;;;1.65;0.35;;;;;;;11.01;72.40;98265.56;4354614;32;34465;-68
2022/04/08 04:06:28;;;;;;;0.77;0.37;;;;;;;11.03;72.73;98239.41;4353696;32;34088;-68
2022/04/08 04:09:14;;;;;;;2.62;0.40;;;;;;;10.99;73.03;98254.94;4361921;32;34207;-69
2022/04/08 04:12:01;;;;;;;0.32;0.22;;;;;;;10.85;74.43;98253.75;4365310;32;34764;-68
2022/04/08 04:14:47;;;;;;;1.30;0.40;;;;;;;10.78;75.42;98249.63;4366196;32;35580;-68
2022/04/08 04:17:33;;;;;;;0.55;0.32;;;;;;;10.76;75.77;98248.41;4365405;32;35046;-68
2022/04/08 04:20:25;;;;;;;3.75;0.50;;;;;;;10.74;74.79;98259.69;4365760;32;34828;-69
2022/04/08 04:23:11;;;;;;;1.15;0.30;;;;;;;10.61;74.16;98260.84;4365076;32;34961;-68
2022/04/08 04:25:58;;;;;;;1.50;0.30;;;;;;;10.64;73.60;98273.84;4363166;32;34704;-68
2022/04/08 04:28:43;;;;;;;1.15;0.93;;;;;;;10.52;73.55;98268.41;4364647;32;36097;-69
2022/04/08 04:31:30;;;;;;;0.40;0.28;;;;;;;10.52;72.77;98274.66;4366525;32;34484;-68
2022/04/08 04:34:16;;;;;;;1.45;0.20;;;;;;;10.63;71.85;98266.00;4370212;32;35128;-69
2022/04/08 04:37:08;;;;;;;3.75;1.10;;;;;;;10.60;69.05;98281.16;4359790;32;35454;-69
2022/04/08 04:39:54;;;;;;;3.58;0.47;;;;;;;10.65;69.34;98285.63;4366107;32;34800;-69
2022/04/08 04:42:41;;;;;;;3.10;0.40;;;;;;;10.70;66.71;98282.62;4366141;32;34102;-69
2022/04/08 04:45:28;;;;;;;0.90;0.30;;;;;;;10.71;65.74;98293.25;4367080;32;35157;-68
2022/04/08 04:48:14;;;;;;;3.33;0.60;;;;;;;10.71;64.69;98282.31;4362483;32;34123;-69
2022/04/08 04:51:00;;;;;;;1.23;0.30;;;;;;;10.73;63.59;98296.47;4362597;32;32911;-69
2022/04/08 04:53:46;;;;;;;4.00;0.60;;;;;;;10.74;60.23;98308.22;4353604;32;35450;-70
2022/04/08 04:56:33;;;;;;;3.15;0.70;;;;;;;10.88;55.79;98319.59;4350935;32;35009;-69
2022/04/08 04:59:20;;;;;;;2.67;0.40;;;;;;;10.91;55.47;98323.59;4361255;32;36109;-69
2022/04/08 05:02:06;;;;;;;1.90;0.30;;;;;;;10.89;55.09;98328.62;4361760;32;33937;-69
2022/04/08 05:04:52;;;;;;;2.15;0.50;;;;;;;10.82;54.50;98325.69;4354432;32;34710;-69
2022/04/08 05:07:39;;;;;;;3.55;0.45;;;;;;;10.73;54.40;98328.50;4366010;32;33884;-72
2022/04/08 05:10:26;;;;;;;1.75;0.45;;;;;;;10.85;53.62;98323.03;4354542;32;35450;-69
2022/04/08 05:13:12;;;;;;;1.05;0.40;;;;;;;10.69;54.11;98342.09;4362160;32;33899;-69
2022/04/08 05:15:59;;;;;;;2.65;0.50;;;;;;;10.63;54.14;98329.78;4342625;32;34111;-69
2022/04/08 05:18:45;;;;;;;1.12;0.40;;;;;;;10.68;55.19;98332.31;4365580;32;34891;-71
2022/04/08 05:21:33;;;;;;;3.85;0.70;;;;;;;10.55;54.54;98333.44;4355141;32;34260;-70
2022/04/08 05:24:20;;;;;;;2.72;0.60;;;;;;;10.46;55.62;98338.22;4363963;32;34843;-69
2022/04/08 05:27:06;;;;;;;2.58;0.47;;;;;;;10.50;54.36;98344.59;4364133;32;34663;-69
2022/04/08 05:29:52;;;;;;;3.05;0.50;;;;;;;10.75;52.85;98343.47;4367308;32;34924;-70
2022/04/08 05:32:40;;;;;;;2.05;0.60;;;;;;;10.77;50.39;98362.31;4353055;32;34372;-69
2022/04/08 05:35:26;;;;;;;1.60;0.52;;;;;;;10.82;49.69;98348.38;4356854;32;33777;-69
2022/04/08 05:38:12;;;;;;;2.80;0.70;;;;;;;10.96;49.00;98361.75;4364490;32;35538;-70
2022/04/08 05:40:58;;;;;;;1.90;0.50;;;;;;;10.83;48.36;98376.59;4363971;32;35128;-69
2022/04/08 05:43:45;;;;;;;1.42;0.40;;;;;;;10.88;47.91;98382.63;4360613;32;34120;-70
2022/04/08 05:46:31;;;;;;;1.30;0.40;;;;;;;10.64;50.48;98386.16;4352226;32;35055;-69
2022/04/08 05:49:23;;;;;;;4.72;0.68;;;;;;;10.50;52.11;98370.09;4364162;32;34775;-70
2022/04/08 05:52:09;;;;;;;4.78;1.05;;;;;;;10.52;51.17;98388.91;4355222;32;35783;-70
2022/04/08 05:54:55;;;;;;;2.60;0.50;;;;;;;10.73;50.15;98384.13;4357234;32;34547;-70
2022/04/08 05:57:42;;;;;;;5.50;0.70;;;;;;;10.87;48.69;98393.91;4364054;32;34809;-70
2022/04/08 06:00:29;;;;;;;3.12;0.80;;;;;;;10.70;48.46;98406.72;4357675;32;35823;-70
2022/04/08 06:03:16;;;;;;;3.87;0.68;;;;;;;10.84;47.62;98400.87;4364924;32;34824;-69
2022/04/08 06:06:02;;;;;;;4.62;0.60;;;;;;;10.77;47.75;98417.91;4364943;32;34281;-70
2022/04/08 06:08:49;;;;;;;2.83;0.57;;;;;;;10.79;46.16;98426.59;4354465;32;34596;-69
2022/04/08 06:11:37;;;;;;;2.72;0.80;;;;;;;10.92;46.77;98443.03;4366567;32;35411;-69
2022/04/08 06:14:23;;;;;;;3.08;0.90;;;;;;;10.78;46.64;98449.62;4357900;32;34920;-69
2022/04/08 06:17:10;;;;;;;5.12;1.15;;;;;;;10.78;44.67;98463.31;4361057;32;34545;-70
2022/04/08 06:19:57;;;;;;;3.72;0.68;;;;;;;10.87;44.77;98473.38;4356291;32;33980;-69
2022/04/08 06:22:43;;;;;;;4.03;0.90;;;;;;;10.97;44.24;98459.25;4350947;32;34676;-70
2022/04/08 06:25:30;;;;;;;3.35;0.50;;;;;;;11.01;45.27;98449.19;4365628;32;34723;-70
2022/04/08 06:28:17;;;;;;;3.37;1.27;;;;;;;10.97;44.98;98451.03;4365631;32;35585;-69
2022/04/08 06:31:03;;;;;;;2.95;0.73;;;;;;;11.03;45.56;98450.44;4351835;32;34248;-71
2022/04/08 06:33:49;;;;;;;4.90;1.10;;;;;;;10.88;45.29;98464.84;4355072;32;33962;-69
2022/04/08 06:36:35;;;;;;;3.05;0.95;;;;;;;11.02;45.07;98472.72;4365072;32;34703;-70
2022/04/08 06:39:23;;;;;;;7.57;1.33;;;;;;;11.32;44.08;98465.06;4363294;32;34310;-69
2022/04/08 06:42:09;;;;;;;3.83;0.93;;;;;;;11.29;43.55;98481.41;4365666;32;34320;-70
2022/04/08 06:44:55;;;;;;;4.10;1.00;;;;;;;11.39;43.74;98456.25;4361080;32;34576;-70
2022/04/08 06:47:46;;;;;;;4.70;1.17;;;;;;;11.59;43.34;98462.75;4357505;32;33993;-69
2022/04/08 06:50:33;;;;;;;5.22;0.90;;;;;;;11.85;42.03;98465.91;4360826;32;35247;-69
2022/04/08 06:53:20;;;;;;;5.03;0.95;;;;;;;12.06;42.28;98487.66;4365294;32;33724;-70
2022/04/08 06:56:06;;;;;;;2.28;0.37;;;;;;;11.84;41.64;98463.47;4363159;32;33608;-69
2022/04/08 06:58:53;;;;;;;4.37;0.80;;;;;;;11.75;40.81;98465.53;4354862;32;35961;-69
2022/04/08 07:01:39;;;;;;;2.85;0.68;;;;;;;11.69;42.17;98473.22;4366557;32;34329;-69
2022/04/08 07:04:26;;;;;;;4.15;0.90;;;;;;;11.98;41.89;98480.41;4363555;32;35233;-68
2022/04/08 07:07:11;;;;;;;7.03;1.08;;;;;;;12.16;42.18;98467.16;4365056;32;34294;-68
2022/04/08 07:09:58;;;;;;;4.60;0.77;;;;;;;12.20;41.87;98475.50;4362113;32;35088;-69
2022/04/08 07:12:44;;;;;;;3.45;0.80;;;;;;;12.14;42.22;98462.00;4351915;32;35025;-69
2022/04/08 07:15:30;;;;;;;6.40;0.98;;;;;;;12.46;42.14;98456.59;4366560;32;34206;-69
2022/04/08 07:18:17;;;;;;;3.45;0.95;;;;;;;12.09;41.78;98486.16;4345986;32;34664;-71
2022/04/08 07:21:03;;;;;;;3.55;0.60;;;;;;;12.23;40.74;98492.06;4363535;32;34965;-69
2022/04/08 07:23:49;;;;;;;3.60;0.70;;;;;;;12.35;40.47;98504.94;4364394;32;34085;-71
2022/04/08 07:26:36;;;;;;;4.80;0.75;;;;;;;12.51;40.01;98481.06;4367520;32;35081;-69
2022/04/08 07:29:22;;;;;;;4.00;0.80;;;;;;;12.67;41.14;98505.03;4357667;32;34263;-70
2022/04/08 07:32:08;;;;;;;6.93;1.00;;;;;;;12.69;41.30;98498.00;4366807;32;34951;-70
2022/04/08 07:34:55;;;;;;;4.07;0.50;;;;;;;12.67;41.37;98502.28;4360210;32;34607;-69
2022/04/08 07:37:41;;;;;;;1.77;0.70;;;;;;;13.01;40.06;98476.84;4368350;32;32748;-69
2022/04/08 07:40:27;;;;;;;5.30;0.60;;;;;;;12.52;39.23;98490.91;4363747;32;34601;-69
2022/04/08 07:43:14;;;;;;;4.90;0.80;;;;;;;12.82;39.18;98498.75;4365719;32;35053;-70
2022/04/08 07:46:01;;;;;;;2.72;0.70;;;;;;;12.66;39.12;98506.16;4352529;32;34202;-70
2022/04/08 07:48:47;;;;;;;2.53;0.60;;;;;;;12.68;38.54;98531.34;4363210;32;34146;-69
2022/04/08 07:51:33;;;;;;;10.48;0.85;;;;;;;12.87;37.46;98514.19;4360166;32;34705;-69
2022/04/08 07:54:25;;;;;;;2.40;0.62;;;;;;;12.65;37.85;98499.87;4363031;32;34766;-69
2022/04/08 07:57:15;;;;;;;2.72;0.43;;;;;;;12.50;35.42;98492.41;4340254;32;35033;-69
2022/04/08 08:00:02;;;;;;;6.70;1.55;;;;;;;12.54;34.86;98491.34;4363405;32;35083;-69
2022/04/08 08:02:56;;;;;;;2.87;0.77;;;;;;;12.51;33.96;98494.78;4361672;32;34615;-68
2022/04/08 08:05:43;;;;;;;2.62;0.40;;;;;;;12.53;35.20;98488.97;4359616;32;34881;-68
2022/04/08 08:08:30;;;;;;;3.47;0.40;;;;;;;12.45;35.83;98493.47;4365717;32;36066;-68
2022/04/08 08:11:18;;;;;;;3.80;0.98;;;;;;;12.50;35.13;98498.69;4364835;32;35094;-69
2022/04/08 08:14:13;;;;;;;3.95;0.70;;;;;;;12.20;34.99;98497.47;4352403;32;34344;-69
2022/04/08 08:17:04;;;;;;;2.83;0.57;;;;;;;12.15;35.75;98499.31;4365141;32;34827;-71
2022/04/08 08:19:51;;;;;;;3.60;0.50;;;;;;;12.40;36.33;98517.63;4349775;32;34517;-69
2022/04/08 08:22:43;;;;;;;3.25;0.85;;;;;;;12.36;35.74;98556.00;4365381;32;34233;-69
2022/04/08 08:25:30;;;;;;;7.68;1.02;;;;;;;12.71;35.84;98539.69;4367541;32;34148;-70
2022/04/08 08:28:16;;;;;;;2.20;0.52;;;;;;;12.71;35.17;98539.69;4367620;32;34941;-70
2022/04/08 08:31:04;;;;;;;4.43;0.75;;;;;;;12.54;35.82;98556.50;4345950;32;35212;-70
2022/04/08 08:33:50;;;;;;;2.95;1.27;;;;;;;12.29;35.17;98556.56;4367234;32;34075;-70
2022/04/08 08:36:37;;;;;;;2.00;0.75;;;;;;;12.42;36.21;98564.78;4371297;32;34386;-69
2022/04/08 08:39:23;;;;;;;4.15;0.50;;;;;;;12.65;35.52;98571.31;4366570;32;35083;-69
2022/04/08 08:42:09;;;;;;;2.22;0.50;;;;;;;12.75;35.84;98567.25;4368200;32;34657;-69
2022/04/08 08:44:56;;;;;;;2.85;0.50;;;;;;;12.71;35.68;98571.88;4367898;32;33848;-69
2022/04/08 08:47:48;;;;;;;3.12;0.57;;;;;;;12.33;35.96;98600.66;4369821;32;35350;-70
2022/04/08 08:50:37;;;;;;;3.10;0.60;;;;;;;12.35;35.91;98566.19;4364629;32;35108;-69
2022/04/08 08:53:24;;;;;;;2.50;0.70;;;;;;;12.68;36.33;98592.59;4356093;32;36042;-69
2022/04/08 08:56:11;;;;;;;3.97;0.50;;;;;;;12.91;35.93;98587.34;4363877;32;33807;-70
2022/04/08 08:58:58;;;;;;;2.90;0.60;;;;;;;12.91;35.70;98592.84;4353401;32;34486;-69
2022/04/08 09:01:44;;;;;;;3.05;0.52;;;;;;;12.75;34.85;98590.06;4365904;32;34967;-69
2022/04/08 09:04:31;;;;;;;3.85;0.70;;;;;;;12.71;34.74;98599.34;4354183;32;35367;-70
2022/04/08 09:07:28;;;;;;;2.78;0.98;;;;;;;13.09;34.23;98587.00;4367435;32;33936;-71
2022/04/08 09:14:06;;;;;;;1.62;0.30;;;;;;;13.75;32.21;98596.56;4555176;28;20105;-73
2022/04/08 09:17:00;;;;;;;3.12;0.57;;;;;;;14.12;32.30;98589.53;4271815;33;35398;-71
2022/04/08 09:19:50;;;;;;;1.80;0.50;;;;;;;14.14;30.14;98595.50;4266210;33;32572;-74
2022/04/08 09:22:37;;;;;;;2.30;0.50;;;;;;;13.86;30.51;98595.66;4261608;33;34726;-73
2022/04/08 09:25:25;;;;;;;1.15;0.30;;;;;;;13.48;30.35;98618.31;4276398;33;35919;-73
2022/04/08 09:28:13;;;;;;;1.12;0.37;;;;;;;13.52;31.09;98632.16;4260136;33;33344;-72
2022/04/08 09:31:01;;;;;;;1.98;0.30;;;;;;;13.97;30.63;98628.91;4257499;33;34107;-73
2022/04/08 09:33:54;;;;;;;2.05;0.30;;;;;;;14.43;30.24;98631.09;4258376;33;33368;-73
2022/04/08 09:36:41;;;;;;;0.55;0.30;;;;;;;14.60;29.26;98620.50;4277498;33;34546;-74
2022/04/08 09:39:27;;;;;;;3.08;0.60;;;;;;;15.14;29.42;98635.34;4253369;33;35304;-75
2022/04/08 09:42:13;;;;;;;2.15;0.30;;;;;;;15.01;29.25;98622.88;4273084;33;34048;-74
2022/04/08 09:44:59;;;;;;;3.62;0.50;;;;;;;15.05;28.04;98624.53;4265921;33;34273;-73
2022/04/08 09:47:46;;;;;;;4.62;0.43;;;;;;;14.46;29.19;98630.38;4271567;33;34675;-73
2022/04/08 09:50:33;;;;;;;4.80;0.50;;;;;;;14.72;28.98;98616.81;4286089;33;35353;-72
2022/04/08 09:53:22;;;;;;;2.97;0.50;;;;;;;15.00;29.10;98627.59;4339214;33;34256;-73
2022/04/08 09:56:12;;;;;;;3.92;0.40;;;;;;;14.74;29.34;98631.03;4334270;33;33273;-71
2022/04/08 09:59:12;;;;;;;9.23;1.00;;;;;;;14.81;29.59;98620.13;4334446;33;34991;-72
2022/04/08 10:01:59;;;;;;;7.22;0.57;;;;;;;14.94;29.02;98634.56;4333295;33;34640;-73
2022/04/08 10:04:46;;;;;;;10.43;0.60;;;;;;;14.62;29.64;98629.19;4336180;33;35109;-73
2022/04/08 10:07:33;;;;;;;13.40;1.90;;;;;;;15.25;29.33;98633.59;4334244;33;34272;-72
2022/04/08 10:10:44;;;;;;;11.38;0.93;;;;;;;14.60;29.04;98630.75;4334944;33;34517;-73
2022/04/08 10:13:49;;;;;;;5.35;0.43;;;;;;;14.92;29.37;98630.59;4335796;32;35175;-74
2022/04/08 10:16:38;;;;;;;2.53;0.50;;;;;;;14.41;29.49;98642.50;4348638;32;33854;-75
2022/04/08 10:19:24;;;;;;;2.70;0.40;;;;;;;14.91;29.29;98640.00;4336880;32;36188;-73
2022/04/08 10:22:20;;;;;;;4.28;1.00;;;;;;;15.59;28.90;98636.50;4337387;32;34935;-72
2022/04/08 10:25:14;;;;;;;1.12;0.40;;;;;;;15.87;28.45;98649.22;4339668;32;34781;-73
2022/04/08 10:28:00;;;;;;;3.60;0.60;;;;;;;15.38;28.65;98666.53;4340929;32;33700;-72
2022/04/08 10:30:48;;;;;;;8.45;0.88;;;;;;;15.55;28.49;98652.22;4343832;32;35548;-72
2022/04/08 10:33:45;;;;;;;2.42;0.55;;;;;;;15.57;28.24;98647.16;4340916;32;34499;-73
2022/04/08 10:36:39;;;;;;;2.70;0.40;;;;;;;15.18;28.34;98644.47;4336508;32;35481;-74
2022/04/08 10:39:26;;;;;;;3.47;0.75;;;;;;;15.56;28.99;98648.28;4344127;32;35072;-72
2022/04/08 10:42:27;;;;;;;4.78;0.60;;;;;;;16.18;27.93;98645.37;4339122;32;35270;-73
2022/04/08 10:45:14;;;;;;;2.58;0.45;;;;;;;15.68;27.93;98645.41;4342516;32;34534;-72
2022/04/08 10:48:20;;;;;;;5.37;0.88;;;;;;;15.91;27.55;98630.78;4331544;32;34019;-73
2022/04/08 10:51:13;;;;;;;2.15;0.40;;;;;;;15.83;28.06;98631.81;4351556;32;34231;-72
2022/04/08 10:54:04;;;;;;;0.98;0.30;;;;;;;15.94;27.68;98638.31;4346161;32;34093;-72
2022/04/08 10:56:57;;;;;;;3.65;0.35;;;;;;;15.67;28.09;98646.50;4342189;32;34990;-72
2022/04/08 10:59:52;;;;;;;1.95;0.40;;;;;;;15.95;28.27;98620.56;4324761;32;33425;-72
2022/04/08 11:02:40;;;;;;;3.37;0.30;;;;;;;15.10;29.72;98642.75;4342614;32;34140;-73
2022/04/08 11:05:26;;;;;;;2.80;0.32;;;;;;;15.22;29.93;98642.56;4346817;32;35521;-74
2022/04/08 11:08:14;;;;;;;2.90;0.57;;;;;;;15.65;29.44;98656.31;4351516;32;35083;-73
2022/04/08 11:11:00;;;;;;;5.78;0.50;;;;;;;15.05;29.80;98656.81;4349290;32;35114;-73
2022/04/08 11:13:55;;;;;;;0.82;0.50;;;;;;;15.10;30.12;98648.25;4333956;32;34191;-73
2022/04/08 11:16:41;;;;;;;2.97;0.95;;;;;;;15.56;30.07;98641.97;4343005;32;34070;-74
2022/04/08 11:19:29;;;;;;;2.33;0.47;;;;;;;15.24;30.58;98645.75;4336538;32;35078;-75
2022/04/08 11:22:16;;;;;;;5.18;0.70;;;;;;;15.30;31.17;98654.53;4353833;32;34341;-73
2022/04/08 11:25:02;;;;;;;2.10;0.43;;;;;;;14.84;31.65;98655.25;4339498;32;33777;-74
2022/04/08 11:28:03;;;;;;;3.40;0.65;;;;;;;14.42;32.27;98665.34;4346534;32;35190;-74
2022/04/08 11:30:56;;;;;;;4.75;0.75;;;;;;;14.31;32.51;98663.12;4345467;32;34779;-75
2022/04/08 11:33:42;;;;;;;3.15;0.47;;;;;;;14.92;32.33;98670.00;4336936;32;34276;-74
2022/04/08 11:36:29;;;;;;;1.45;0.47;;;;;;;14.77;32.97;98663.38;4356711;32;34829;-75
2022/04/08 11:39:21;;;;;;;2.17;0.93;;;;;;;14.91;33.65;98662.06;4342159;32;34640;-74
2022/04/08 11:42:08;;;;;;;4.62;0.80;;;;;;;15.46;32.16;98651.69;4345061;32;34996;-75
2022/04/08 11:44:54;;;;;;;3.95;1.05;;;;;;;15.14;33.00;98653.84;4346627;32;35311;-76
2022/04/08 11:47:48;;;;;;;2.62;0.50;;;;;;;15.65;31.60;98651.63;4339836;32;35168;-75
2022/04/08 11:50:37;;;;;;;6.37;1.10;;;;;;;14.88;33.04;98651.75;4334483;32;35169;-73
2022/04/08 11:53:24;;;;;;;5.57;0.70;;;;;;;14.78;33.90;98659.47;4355263;32;35101;-75
2022/04/08 11:56:10;;;;;;;4.28;0.62;;;;;;;14.90;33.99;98643.94;4344947;32;34601;-74
2022/04/08 11:59:05;;;;;;;3.28;0.70;;;;;;;14.91;34.33;98653.78;4339515;32;35024;-74
2022/04/08 12:01:57;;;;;;;1.77;0.70;;;;;;;15.52;34.65;98641.94;4339125;32;34636;-74
2022/04/08 12:04:44;;;;;;;3.25;0.85;;;;;;;15.29;34.57;98650.19;4336905;32;35570;-75
2022/04/08 12:07:30;;;;;;;3.35;0.70;;;;;;;15.65;34.61;98637.81;4350196;32;34153;-75
2022/04/08 12:10:19;;;;;;;2.37;0.50;;;;;;;15.18;34.90;98638.16;4349840;32;34105;-75
2022/04/08 12:13:16;;;;;;;4.20;0.85;;;;;;;15.57;35.21;98629.75;4342821;32;35163;-76
2022/04/08 12:16:09;;;;;;;2.67;0.68;;;;;;;16.27;34.64;98623.78;4342635;32;35155;-74
2022/04/08 12:18:55;;;;;;;1.00;0.55;;;;;;;16.30;34.43;98609.22;4354389;32;34104;-74
2022/04/08 12:22:17;;;;;;;4.12;0.80;;;;;;;15.95;34.58;98598.44;4356661;32;35078;-75
2022/04/08 12:25:05;;;;;;;4.32;0.73;;;;;;;16.21;35.52;98608.69;4343038;32;34541;-75
2022/04/08 12:27:53;;;;;;;2.67;0.43;;;;;;;16.66;34.64;98597.81;4350282;32;34852;-74
2022/04/08 12:30:55;;;;;;;2.55;0.60;;;;;;;16.75;35.03;98590.03;4344340;32;34259;-75
2022/04/08 12:33:42;;;;;;;6.32;1.08;;;;;;;15.94;34.96;98594.09;4335294;32;34242;-75
2022/04/08 12:36:28;;;;;;;2.40;0.52;;;;;;;15.63;36.43;98593.22;4355243;32;34693;-74
2022/04/08 12:39:15;;;;;;;2.35;0.70;;;;;;;15.91;36.65;98587.34;4345562;32;34915;-75
2022/04/08 12:42:02;;;;;;;4.43;0.70;;;;;;;16.09;35.59;98584.84;4345278;32;34537;-75
2022/04/08 12:44:48;;;;;;;4.37;0.75;;;;;;;16.57;35.87;98574.03;4346611;32;35043;-74
2022/04/08 12:47:35;;;;;;;2.50;0.88;;;;;;;15.95;36.50;98557.81;4346087;32;34681;-75
2022/04/08 12:50:23;;;;;;;3.33;1.10;;;;;;;15.53;36.69;98539.41;4339739;32;35673;-74
2022/04/08 12:53:10;;;;;;;2.15;0.80;;;;;;;15.89;36.56;98561.28;4359685;32;34458;-75
2022/04/08 12:55:58;;;;;;;1.10;0.50;;;;;;;16.16;36.78;98557.28;4355453;32;34091;-74
2022/04/08 12:58:46;;;;;;;2.92;0.80;;;;;;;16.06;35.91;98565.47;4336900;32;35511;-74
2022/04/08 13:01:32;;;;;;;4.32;0.60;;;;;;;16.14;36.47;98562.41;4359524;32;35633;-74
2022/04/08 13:04:19;;;;;;;2.03;0.65;;;;;;;16.53;36.17;98562.09;4346196;32;35557;-75
2022/04/08 13:07:07;;;;;;;2.50;0.70;;;;;;;16.95;35.29;98568.53;4357951;32;35728;-75
2022/04/08 13:09:53;;;;;;;2.80;0.65;;;;;;;16.71;35.28;98556.00;4355774;32;34647;-75
2022/04/08 13:12:39;;;;;;;4.82;0.55;;;;;;;17.25;34.74;98549.06;4356452;32;34508;-76
2022/04/08 13:15:26;;;;;;;2.08;0.80;;;;;;;17.70;34.33;98539.53;4359331;32;35230;-75